Time;durP1;ratioP1;P1;durP2;ratioP2;P2;SDS_P1;SDS_P2;PMS_P1;PMS_P2;Temp;Humidity;BMP_temperature;BMP_pressure;BME280_temperature;BME280_humidity;BME280_pressure;Samples;Min_cycle;Max_cycle;Signal;HPM_P1;HPM_P2
2021/07/24 00:02:20;;;;;;;12.90;5.22;;;19.50;98.40;;;;;;5096004;28;19908;-76
2021/07/24 00:04:45;;;;;;;;;;;19.40;98.60;;;;;;5096285;28;20476;-77
2021/07/24 00:07:11;;;;;;;17.90;7.20;;;19.50;98.40;;;;;;5095879;28;19976;-78
2021/07/24 00:09:36;;;;;;;;;;;19.50;98.30;;;;;;5078180;28;20012;-77
2021/07/24 00:12:02;;;;;;;20.30;6.18;;;19.40;98.60;;;;;;5096029;28;20253;-77
2021/07/24 00:14:28;;;;;;;19.52;10.15;;;19.30;99.20;;;;;;5095564;28;20043;-79
2021/07/24 00:16:54;;;;;;;14.02;5.35;;;19.30;99.00;;;;;;5094737;28;20024;-78
2021/07/24 00:19:20;;;;;;;16.73;5.28;;;19.40;98.60;;;;;;5077513;28;20085;-77
2021/07/24 00:21:45;;;;;;;18.45;6.75;;;19.30;98.60;;;;;;5095803;28;20028;-78
2021/07/24 00:24:11;;;;;;;;;;;19.40;98.60;;;;;;5095982;28;20034;-78
2021/07/24 00:26:37;;;;;;;18.65;7.30;;;19.40;98.60;;;;;;5095439;28;19915;-77
2021/07/24 00:29:05;;;;;;;14.80;6.10;;;19.20;98.90;;;;;;5095407;28;20020;-77
2021/07/24 00:31:32;;;;;;;17.98;5.97;;;19.20;98.90;;;;;;5077163;28;20020;-77
2021/07/24 00:33:58;;;;;;;16.85;6.30;;;19.20;99.10;;;;;;5095309;28;20039;-77
2021/07/24 00:36:24;;;;;;;15.30;5.68;;;19.10;99.10;;;;;;5095296;28;20476;-76
2021/07/24 00:38:49;;;;;;;;;;;19.20;99.20;;;;;;5095704;28;20361;-77
2021/07/24 00:41:24;;;;;;;16.77;6.45;;;19.30;98.70;;;;;;5095303;28;19904;-77
2021/07/24 00:43:51;;;;;;;17.35;5.82;;;19.20;98.70;;;;;;5095494;28;20563;-77
2021/07/24 00:46:20;;;;;;;16.48;6.07;;;19.20;98.80;;;;;;5095107;28;20024;-77
2021/07/24 00:48:48;;;;;;;15.18;5.80;;;19.20;98.90;;;;;;5095116;28;20028;-79
2021/07/24 00:51:25;;;;;;;21.58;10.15;;;19.20;98.70;;;;;;5095049;28;20582;-78
2021/07/24 00:53:51;;;;;;;21.80;6.68;;;19.10;98.70;;;;;;5095194;28;20099;-77
2021/07/24 00:56:17;;;;;;;39.00;21.45;;;19.10;98.80;;;;;;5094962;28;20063;-77
2021/07/24 00:58:43;;;;;;;15.52;6.07;;;19.00;98.60;;;;;;5095129;28;20127;-78
2021/07/24 01:03:53;;;;;;;19.90;6.50;;;19.10;98.70;;;;;;5095294;28;20038;-78
2021/07/24 01:06:19;;;;;;;14.73;6.10;;;19.30;98.30;;;;;;5076524;28;20024;-77
2021/07/24 01:08:45;;;;;;;;;;;19.30;98.10;;;;;;5094874;28;20077;-78
2021/07/24 01:11:11;;;;;;;17.17;7.00;;;19.20;98.30;;;;;;5094700;28;19904;-78
2021/07/24 01:13:39;;;;;;;16.42;6.38;;;19.30;98.20;;;;;;5094800;28;20043;-77
2021/07/24 01:16:05;;;;;;;18.75;7.13;;;19.20;98.30;;;;;;5094571;28;20028;-77
2021/07/24 01:18:31;;;;;;;17.52;6.47;;;19.10;98.40;;;;;;5094715;28;20046;-77
2021/07/24 01:21:00;;;;;;;16.92;6.43;;;19.30;98.20;;;;;;5094545;28;20407;-77
2021/07/24 01:23:26;;;;;;;18.35;6.75;;;19.40;98.40;;;;;;5094373;28;20020;-77
2021/07/24 01:25:53;;;;;;;19.88;7.05;;;19.20;98.60;;;;;;5094339;28;20445;-78
2021/07/24 01:28:32;;;;;;;16.55;7.07;;;19.10;99.00;;;;;;5076031;28;20052;-78
2021/07/24 01:31:01;;;;;;;16.08;6.68;;;19.10;99.00;;;;;;5075873;28;20099;-77
2021/07/24 01:33:28;;;;;;;16.27;7.13;;;19.10;99.10;;;;;;5094178;28;20019;-78
2021/07/24 01:35:54;;;;;;;16.38;6.75;;;19.30;98.90;;;;;;5094197;28;20032;-78
2021/07/24 01:38:21;;;;;;;19.23;7.70;;;19.20;99.10;;;;;;5094170;28;20062;-77
2021/07/24 01:40:48;;;;;;;17.08;7.28;;;19.20;99.30;;;;;;5094053;28;20028;-76
2021/07/24 01:43:13;;;;;;;17.55;7.57;;;19.20;99.20;;;;;;5094037;28;20035;-77
2021/07/24 01:45:41;;;;;;;17.67;7.03;;;19.00;99.50;;;;;;5094307;28;20024;-77
2021/07/24 01:48:53;;;;;;;16.83;7.65;;;19.20;99.30;;;;;;5094021;28;20030;-77
2021/07/24 01:53:40;;;;;;;17.95;7.53;;;18.80;99.90;;;;;;5094020;28;20028;-78
2021/07/24 01:56:09;;;;;;;18.33;7.60;;;19.00;99.90;;;;;;5093907;28;20136;-77
2021/07/24 01:58:36;;;;;;;19.90;7.78;;;19.00;99.90;;;;;;5093865;28;20394;-78
2021/07/24 02:01:04;;;;;;;21.15;7.90;;;18.90;99.90;;;;;;5093829;28;20024;-77
2021/07/24 02:03:45;;;;;;;21.13;8.68;;;19.10;99.90;;;;;;5093937;28;20024;-77
2021/07/24 02:06:16;;;;;;;15.93;8.25;;;19.00;99.90;;;;;;5093606;28;20077;-78
2021/07/24 02:08:45;;;;;;;21.77;8.02;;;19.00;99.90;;;;;;5093791;28;20043;-78
2021/07/24 02:11:12;;;;;;;21.33;8.23;;;18.90;99.90;;;;;;5093616;28;20031;-77
2021/07/24 02:13:38;;;;;;;17.17;7.50;;;19.00;99.90;;;;;;5093383;28;20040;-77
2021/07/24 02:16:06;;;;;;;22.17;8.30;;;19.00;99.90;;;;;;5093698;28;20078;-78
2021/07/24 02:18:33;;;;;;;18.88;8.70;;;19.00;99.90;;;;;;5093795;28;20026;-78
2021/07/24 02:21:01;;;;;;;16.65;8.43;;;18.90;99.90;;;;;;5093749;28;20034;-77
2021/07/24 02:23:27;;;;;;;19.42;8.15;;;18.90;99.90;;;;;;5093341;28;20441;-77
2021/07/24 02:25:53;;;;;;;18.17;8.43;;;19.00;99.90;;;;;;5093677;28;20502;-77
2021/07/24 02:28:19;;;;;;;19.48;9.07;;;19.00;99.90;;;;;;5093317;28;20024;-77
2021/07/24 02:30:45;;;;;;;20.08;8.30;;;18.90;99.90;;;;;;5093386;28;20099;-77
2021/07/24 02:33:11;;;;;;;23.23;10.45;;;18.80;99.90;;;;;;5093510;28;20024;-77
2021/07/24 02:35:36;;;;;;;18.38;8.13;;;18.60;99.90;;;;;;5093711;28;20031;-78
2021/07/24 02:38:02;;;;;;;;;;;18.60;99.90;;;;;;5093663;28;20069;-78
2021/07/24 02:40:28;;;;;;;21.05;8.70;;;18.60;99.90;;;;;;5092704;28;20271;-77
2021/07/24 02:42:54;;;;;;;;;;;18.60;99.90;;;;;;5093775;28;20077;-77
2021/07/24 02:45:21;;;;;;;20.65;9.40;;;18.60;99.90;;;;;;5093217;28;19908;-77
2021/07/24 02:47:47;;;;;;;20.17;8.60;;;18.50;99.90;;;;;;5074969;28;20032;-77
2021/07/24 02:50:12;;;;;;;;;;;18.50;99.90;;;;;;5093782;28;20528;-77
2021/07/24 02:52:39;;;;;;;22.17;9.23;;;18.40;99.90;;;;;;5093300;28;19904;-77
2021/07/24 02:55:05;;;;;;;20.02;8.63;;;18.40;99.90;;;;;;5074961;28;20077;-77
2021/07/24 02:57:31;;;;;;;21.55;9.05;;;18.30;99.90;;;;;;5093066;28;20020;-78
2021/07/24 02:59:57;;;;;;;;;;;18.30;99.90;;;;;;5093473;28;20020;-77
2021/07/24 03:02:22;;;;;;;15.63;7.68;;;18.20;99.90;;;;;;5093052;28;19911;-77
2021/07/24 03:04:48;;;;;;;;;;;18.30;99.90;;;;;;5093483;28;20025;-78
2021/07/24 03:07:14;;;;;;;18.88;7.78;;;18.30;99.90;;;;;;5092928;28;19908;-77
2021/07/24 03:09:39;;;;;;;;;;;18.30;99.90;;;;;;5075165;28;20138;-78
2021/07/24 03:12:06;;;;;;;14.40;7.53;;;18.40;99.90;;;;;;5092948;28;19927;-77
2021/07/24 03:14:31;;;;;;;14.82;7.53;;;18.40;99.90;;;;;;5092770;28;20047;-77
2021/07/24 03:16:57;;;;;;;;;;;18.50;99.90;;;;;;5093628;28;20016;-78
2021/07/24 03:19:23;;;;;;;14.27;7.40;;;18.40;99.90;;;;;;5092859;28;19904;-77
2021/07/24 03:21:48;;;;;;;;;;;18.60;99.90;;;;;;5075121;28;20373;-78
2021/07/24 03:24:14;;;;;;;15.52;7.47;;;18.60;99.80;;;;;;5092911;28;19949;-78
2021/07/24 03:26:40;;;;;;;;;;;18.40;99.70;;;;;;5075065;28;20366;-78
2021/07/24 03:29:07;;;;;;;14.50;7.28;;;18.30;99.90;;;;;;5092857;28;19910;-78
2021/07/24 03:31:32;;;;;;;15.13;7.60;;;18.40;99.90;;;;;;5092814;28;20503;-77
2021/07/24 03:33:58;;;;;;;16.23;7.75;;;18.50;99.90;;;;;;5092788;28;20016;-77
2021/07/24 03:36:24;;;;;;;;;;;18.40;99.90;;;;;;5074923;28;20044;-77
2021/07/24 03:38:49;;;;;;;19.15;8.38;;;18.40;99.90;;;;;;5074578;28;20009;-77
2021/07/24 03:41:15;;;;;;;;;;;18.60;99.90;;;;;;5093096;28;20028;-78
2021/07/24 03:43:42;;;;;;;18.60;8.55;;;18.50;99.90;;;;;;5092323;28;19911;-78
2021/07/24 03:46:24;;;;;;;17.25;7.80;;;18.50;99.90;;;;;;5092637;28;20024;-78
2021/07/24 03:48:50;;;;;;;20.17;8.70;;;18.60;99.90;;;;;;5092685;28;20099;-77
2021/07/24 03:51:16;;;;;;;15.40;7.32;;;18.70;99.90;;;;;;5093033;28;20507;-78
2021/07/24 03:53:41;;;;;;;;;;;18.60;99.90;;;;;;5096864;28;20038;-77
2021/07/24 03:56:20;;;;;;;18.65;8.10;;;18.60;99.90;;;;;;5096192;28;19911;-78
2021/07/24 03:58:47;;;;;;;16.75;7.60;;;18.60;99.90;;;;;;5096355;28;20027;-77
2021/07/24 04:01:13;;;;;;;15.55;6.93;;;18.60;99.90;;;;;;5096403;28;20020;-77
2021/07/24 04:03:40;;;;;;;15.38;7.22;;;18.70;99.60;;;;;;5095965;28;20024;-78
2021/07/24 04:06:16;;;;;;;16.55;7.30;;;18.70;99.40;;;;;;5095858;28;20380;-77
2021/07/24 04:08:42;;;;;;;17.35;7.18;;;18.60;99.60;;;;;;5096355;28;20016;-78
2021/07/24 04:11:08;;;;;;;15.25;6.82;;;18.60;99.60;;;;;;5095996;28;20476;-77
2021/07/24 04:13:34;;;;;;;15.52;7.05;;;18.70;99.40;;;;;;5095657;28;20566;-77
2021/07/24 04:16:00;;;;;;;17.50;6.93;;;18.70;99.30;;;;;;5077338;28;20047;-77
2021/07/24 04:18:30;;;;;;;20.42;9.82;;;18.60;99.60;;;;;;5095746;28;20028;-78
2021/07/24 04:20:56;;;;;;;14.65;6.80;;;18.30;99.90;;;;;;5095625;28;20020;-77
2021/07/24 04:23:21;;;;;;;;;;;18.30;99.90;;;;;;5096384;28;20081;-77
2021/07/24 04:25:47;;;;;;;23.70;11.35;;;18.30;99.90;;;;;;5095549;28;19911;-77
2021/07/24 04:28:13;;;;;;;;;;;18.20;99.90;;;;;;5095951;28;20449;-77
2021/07/24 04:30:38;;;;;;;15.00;7.10;;;18.20;99.90;;;;;;5077295;28;20283;-77
2021/07/24 04:33:04;;;;;;;;;;;18.20;99.90;;;;;;5095883;28;20064;-77
2021/07/24 04:35:30;;;;;;;18.17;7.10;;;18.20;99.90;;;;;;5095119;28;19908;-77
2021/07/24 04:37:55;;;;;;;;;;;18.10;99.90;;;;;;5095773;28;20069;-77
2021/07/24 04:40:21;;;;;;;19.08;6.95;;;18.20;99.90;;;;;;5095593;28;19987;-76
2021/07/24 04:42:47;;;;;;;;;;;18.30;99.90;;;;;;5095643;28;20454;-78
2021/07/24 04:45:12;;;;;;;16.77;7.78;;;18.10;99.90;;;;;;5095261;28;19965;-78
2021/07/24 04:47:38;;;;;;;;;;;18.10;99.90;;;;;;5095503;28;20058;-77
2021/07/24 04:50:04;;;;;;;24.02;8.23;;;18.00;99.90;;;;;;5095136;28;19911;-78
2021/07/24 04:52:30;;;;;;;19.40;7.97;;;17.90;99.90;;;;;;5095072;28;20465;-78
2021/07/24 04:54:58;;;;;;;;;;;18.10;99.90;;;;;;5095410;28;20108;-77
2021/07/24 04:57:24;;;;;;;18.77;7.80;;;18.00;99.90;;;;;;5095080;28;20073;-76
2021/07/24 04:59:51;;;;;;;17.60;8.10;;;18.10;99.90;;;;;;5094927;28;20509;-77
2021/07/24 05:02:20;;;;;;;19.08;8.70;;;18.10;99.90;;;;;;5094360;28;20024;-77
2021/07/24 05:04:47;;;;;;;18.42;8.93;;;18.20;99.90;;;;;;5094790;28;20438;-77
2021/07/24 05:07:18;;;;;;;18.52;7.55;;;18.30;99.90;;;;;;5094772;28;20473;-77
2021/07/24 05:09:44;;;;;;;20.35;7.50;;;18.40;99.90;;;;;;5094799;28;20369;-78
2021/07/24 05:12:10;;;;;;;31.33;16.35;;;18.40;99.90;;;;;;5094615;28;20020;-77
2021/07/24 05:14:36;;;;;;;28.92;16.20;;;18.40;99.90;;;;;;5094369;28;20044;-76
2021/07/24 05:17:12;;;;;;;17.15;7.60;;;18.50;99.90;;;;;;5094589;28;20091;-78
2021/07/24 05:19:40;;;;;;;15.32;7.18;;;18.50;99.90;;;;;;5094233;28;20036;-78
2021/07/24 05:22:08;;;;;;;16.08;7.47;;;18.60;99.90;;;;;;5094462;28;20023;-76
2021/07/24 05:24:34;;;;;;;15.00;7.57;;;18.60;99.90;;;;;;5094336;28;20040;-77
2021/07/24 05:27:04;;;;;;;16.13;7.63;;;18.70;99.90;;;;;;5094318;28;20020;-76
2021/07/24 05:29:30;;;;;;;17.70;7.30;;;18.80;99.90;;;;;;5094312;28;20031;-77
2021/07/24 05:31:56;;;;;;;12.85;6.68;;;18.90;99.90;;;;;;5076100;28;20020;-78
2021/07/24 05:34:23;;;;;;;17.80;7.00;;;19.00;99.90;;;;;;5094252;28;20021;-78
2021/07/24 05:36:49;;;;;;;18.50;7.68;;;19.00;99.90;;;;;;5094309;28;20023;-78
2021/07/24 05:39:15;;;;;;;12.70;6.72;;;18.90;99.90;;;;;;5094290;28;20032;-78
2021/07/24 05:41:40;;;;;;;15.00;7.50;;;18.90;99.90;;;;;;5094315;28;20027;-77
2021/07/24 05:44:06;;;;;;;14.55;7.03;;;18.80;99.90;;;;;;5094087;28;20032;-77
2021/07/24 05:46:32;;;;;;;15.38;6.80;;;18.80;99.90;;;;;;5094017;28;20476;-77
2021/07/24 05:48:58;;;;;;;26.45;16.10;;;18.90;99.90;;;;;;5094021;28;20051;-77
2021/07/24 05:51:24;;;;;;;12.23;6.50;;;18.80;99.90;;;;;;5094019;28;20020;-76
2021/07/24 05:53:49;;;;;;;15.68;7.28;;;19.00;99.90;;;;;;5093831;28;20610;-77
2021/07/24 05:56:15;;;;;;;;;;;18.90;99.90;;;;;;5076069;28;20510;-77
2021/07/24 05:58:41;;;;;;;14.07;6.22;;;19.00;99.90;;;;;;5093948;28;19994;-77
2021/07/24 06:01:10;;;;;;;15.30;6.18;;;19.00;99.90;;;;;;5093767;28;20055;-77
2021/07/24 06:03:36;;;;;;;15.00;6.05;;;18.90;99.90;;;;;;5093713;28;20361;-77
2021/07/24 06:06:02;;;;;;;13.60;5.57;;;18.80;99.90;;;;;;5093784;28;20030;-78
2021/07/24 06:08:28;;;;;;;16.52;6.20;;;18.70;99.90;;;;;;5093623;28;20026;-77
2021/07/24 06:10:57;;;;;;;14.20;5.88;;;18.90;99.90;;;;;;5093599;28;20028;-79
2021/07/24 06:13:23;;;;;;;13.38;5.88;;;19.00;99.90;;;;;;5093152;28;20013;-78
2021/07/24 06:15:49;;;;;;;14.98;5.50;;;19.10;99.90;;;;;;5093397;28;20032;-78
2021/07/24 06:18:15;;;;;;;13.75;5.50;;;19.30;99.90;;;;;;5093466;28;20507;-77
2021/07/24 06:20:41;;;;;;;12.40;5.20;;;19.20;99.90;;;;;;5093440;28;20024;-77
2021/07/24 06:23:07;;;;;;;10.90;4.97;;;19.20;99.90;;;;;;5093514;28;20028;-77
2021/07/24 06:25:33;;;;;;;12.32;5.20;;;19.30;99.90;;;;;;5093348;28;20024;-77
2021/07/24 06:27:59;;;;;;;13.23;5.28;;;19.30;99.90;;;;;;5093261;28;20107;-78
2021/07/24 06:30:25;;;;;;;12.27;4.90;;;19.40;99.90;;;;;;5093329;28;20099;-77
2021/07/24 06:32:51;;;;;;;14.73;5.85;;;19.10;99.90;;;;;;5093471;28;20488;-78
2021/07/24 06:35:17;;;;;;;10.45;4.88;;;19.10;99.90;;;;;;5093301;28;20064;-79
2021/07/24 06:37:43;;;;;;;40.17;24.40;;;19.50;99.90;;;;;;5093235;28;20065;-77
2021/07/24 06:40:09;;;;;;;11.40;4.80;;;19.30;99.90;;;;;;5093238;28;20028;-77
2021/07/24 06:42:35;;;;;;;22.77;12.75;;;19.30;99.90;;;;;;5093211;28;20024;-78
2021/07/24 06:45:01;;;;;;;12.60;6.40;;;19.20;99.90;;;;;;5093201;28;20024;-78
2021/07/24 06:47:27;;;;;;;17.83;11.15;;;19.30;99.90;;;;;;5093093;28;20404;-77
2021/07/24 06:49:53;;;;;;;33.67;19.60;;;19.30;99.90;;;;;;5093098;28;20023;-77
2021/07/24 06:52:18;;;;;;;19.45;11.85;;;19.10;99.90;;;;;;5093344;28;20020;-77
2021/07/24 06:54:44;;;;;;;10.25;4.93;;;19.30;99.90;;;;;;5093031;28;20396;-78
2021/07/24 06:57:10;;;;;;;13.90;4.95;;;19.30;99.90;;;;;;5092986;28;20020;-77
2021/07/24 06:59:35;;;;;;;;;;;19.40;99.90;;;;;;5093796;28;20067;-77
2021/07/24 07:02:01;;;;;;;10.27;5.03;;;19.40;99.90;;;;;;5092971;28;19904;-78
2021/07/24 07:04:27;;;;;;;11.00;4.50;;;19.30;99.90;;;;;;5093077;28;20032;-77
2021/07/24 07:06:53;;;;;;;12.25;6.43;;;19.50;99.90;;;;;;5093035;28;20055;-77
2021/07/24 07:09:19;;;;;;;9.88;4.20;;;19.50;99.90;;;;;;5092942;28;20016;-78
2021/07/24 07:11:45;;;;;;;8.63;4.78;;;19.50;99.80;;;;;;5093588;28;20012;-78
2021/07/24 07:14:11;;;;;;;10.50;4.78;;;19.80;99.00;;;;;;5074559;28;20040;-78
2021/07/24 07:16:36;;;;;;;11.32;7.45;;;19.90;99.00;;;;;;5093006;28;20507;-78
2021/07/24 07:19:04;;;;;;;8.57;4.00;;;19.80;98.40;;;;;;5074773;28;20020;-76
2021/07/24 07:21:30;;;;;;;8.70;4.82;;;19.70;99.20;;;;;;5092811;28;20024;-77
2021/07/24 07:23:56;;;;;;;10.00;4.68;;;19.70;98.80;;;;;;5092995;28;20107;-77
2021/07/24 07:26:24;;;;;;;10.82;4.43;;;19.80;98.80;;;;;;5095119;28;20020;-77
2021/07/24 07:28:50;;;;;;;11.55;6.70;;;20.00;98.60;;;;;;5096633;28;20017;-78
2021/07/24 07:31:16;;;;;;;13.52;5.63;;;20.10;98.10;;;;;;5096568;28;20368;-78
2021/07/24 07:33:42;;;;;;;10.32;4.80;;;20.60;97.40;;;;;;5096577;28;20020;-78
2021/07/24 07:36:07;;;;;;;10.20;5.82;;;21.70;95.80;;;;;;5096563;28;20069;-78
2021/07/24 07:38:33;;;;;;;16.15;11.60;;;22.70;92.90;;;;;;5078338;28;20048;-79
2021/07/24 07:40:59;;;;;;;18.85;17.00;;;23.80;91.50;;;;;;5096525;28;20023;-78
2021/07/24 07:43:25;;;;;;;21.95;19.70;;;23.80;90.50;;;;;;5096427;28;20388;-76
2021/07/24 07:45:50;;;;;;;19.08;17.30;;;24.70;88.40;;;;;;5096279;28;20400;-77
2021/07/24 07:48:16;;;;;;;11.68;8.88;;;23.20;90.30;;;;;;5096652;28;20073;-76
2021/07/24 07:50:43;;;;;;;39.67;35.53;;;23.00;91.00;;;;;;5096567;28;20012;-77
2021/07/24 07:53:09;;;;;;;11.25;6.43;;;22.00;92.90;;;;;;5096179;28;20016;-77
2021/07/24 07:55:36;;;;;;;9.23;4.75;;;21.80;93.60;;;;;;5096030;28;20103;-78
2021/07/24 07:58:10;;;;;;;15.25;9.80;;;21.40;94.10;;;;;;5096372;28;20023;-77
2021/07/24 08:00:36;;;;;;;40.47;23.85;;;21.40;94.50;;;;;;5077581;28;20028;-77
2021/07/24 08:03:02;;;;;;;10.60;6.70;;;21.20;94.40;;;;;;5095966;28;20111;-79
2021/07/24 08:05:28;;;;;;;9.35;4.85;;;20.90;95.20;;;;;;5077484;28;20399;-77
2021/07/24 08:07:53;;;;;;;18.45;12.60;;;21.10;95.60;;;;;;5095949;28;20103;-79
2021/07/24 08:10:19;;;;;;;51.55;33.60;;;21.00;95.40;;;;;;5095730;28;20099;-78
2021/07/24 08:12:46;;;;;;;13.25;7.13;;;20.80;95.30;;;;;;5077521;28;20020;-77
2021/07/24 08:15:12;;;;;;;22.38;13.15;;;21.00;95.50;;;;;;5095209;28;20044;-79
2021/07/24 08:17:38;;;;;;;15.02;8.52;;;20.50;97.30;;;;;;5095664;28;20016;-77
2021/07/24 08:20:06;;;;;;;12.27;5.95;;;20.00;99.80;;;;;;5095678;28;20042;-77
2021/07/24 08:22:31;;;;;;;12.80;6.53;;;19.60;99.30;;;;;;5095885;28;20047;-78
2021/07/24 08:24:57;;;;;;;14.35;7.40;;;19.40;99.90;;;;;;5095589;28;20476;-76
2021/07/24 08:27:25;;;;;;;10.15;5.15;;;19.70;99.90;;;;;;5095461;28;20028;-77
2021/07/24 08:29:51;;;;;;;9.77;5.13;;;20.60;99.90;;;;;;5066759;28;20039;-77
2021/07/24 08:32:17;;;;;;;9.82;5.57;;;21.60;97.80;;;;;;5094872;28;20043;-78
2021/07/24 08:34:42;;;;;;;21.38;18.40;;;21.80;96.40;;;;;;5095081;28;20468;-77
2021/07/24 08:37:09;;;;;;;12.30;8.57;;;21.30;95.50;;;;;;5093932;28;20107;-78
2021/07/24 08:39:35;;;;;;;24.08;20.13;;;21.40;95.10;;;;;;5094183;28;20051;-78
2021/07/24 08:42:03;;;;;;;9.35;4.70;;;21.30;95.60;;;;;;5094692;28;20028;-77
2021/07/24 08:44:29;;;;;;;11.02;5.65;;;21.50;95.20;;;;;;5094962;28;20085;-77
2021/07/24 08:46:55;;;;;;;13.15;10.00;;;21.30;95.60;;;;;;5094680;28;20020;-77
2021/07/24 08:49:21;;;;;;;9.68;4.68;;;21.10;96.50;;;;;;5094490;28;20093;-77
2021/07/24 08:51:49;;;;;;;9.23;4.93;;;20.80;97.40;;;;;;5094499;28;20099;-77
2021/07/24 08:54:15;;;;;;;11.55;4.97;;;21.10;96.90;;;;;;5094437;28;20133;-78
2021/07/24 08:56:47;;;;;;;9.82;4.57;;;21.00;96.00;;;;;;5094790;28;20050;-78
2021/07/24 08:59:20;;;;;;;16.08;5.32;;;20.80;96.50;;;;;;5075968;28;20032;-78
2021/07/24 09:01:54;;;;;;;10.20;4.57;;;20.70;96.80;;;;;;5094477;28;20024;-78
2021/07/24 09:04:21;;;;;;;13.30;8.30;;;20.70;97.50;;;;;;5094558;28;20024;-78
2021/07/24 09:06:53;;;;;;;13.55;5.03;;;20.70;97.40;;;;;;5094174;28;20434;-78
2021/07/24 09:09:19;;;;;;;12.43;6.15;;;20.70;97.10;;;;;;5094052;28;20092;-78
2021/07/24 09:11:45;;;;;;;10.63;4.72;;;20.60;97.30;;;;;;5094354;28;20026;-77
2021/07/24 09:14:12;;;;;;;11.95;5.00;;;20.50;97.60;;;;;;5094072;28;20052;-78
2021/07/24 09:16:40;;;;;;;16.35;5.00;;;20.40;98.10;;;;;;5075996;28;20035;-77
2021/07/24 09:19:06;;;;;;;15.93;9.68;;;20.40;98.20;;;;;;5093785;28;20031;-77
2021/07/24 09:21:32;;;;;;;15.32;8.30;;;20.10;99.50;;;;;;5094273;28;20388;-78
2021/07/24 09:24:19;;;;;;;10.85;5.45;;;19.90;99.90;;;;;;5094124;28;20024;-78
2021/07/24 09:26:45;;;;;;;12.45;5.15;;;19.90;99.90;;;;;;5093946;28;20176;-78
2021/07/24 09:29:15;;;;;;;22.77;15.48;;;19.80;99.90;;;;;;5074621;28;20438;-77
2021/07/24 09:31:42;;;;;;;20.83;11.63;;;19.60;99.90;;;;;;5094032;28;20042;-77
2021/07/24 09:34:09;;;;;;;12.48;5.85;;;19.40;99.90;;;;;;5093902;28;20027;-77
2021/07/24 09:36:36;;;;;;;12.95;6.10;;;19.10;99.90;;;;;;5094049;28;20020;-78
2021/07/24 09:39:08;;;;;;;24.10;13.30;;;18.90;99.90;;;;;;5093542;28;20106;-79
2021/07/24 09:41:35;;;;;;;14.80;6.22;;;18.70;99.90;;;;;;5075569;28;20066;-80
2021/07/24 09:44:01;;;;;;;14.35;6.22;;;18.60;99.90;;;;;;5093822;28;20495;-77
2021/07/24 09:46:27;;;;;;;14.38;6.20;;;18.50;99.90;;;;;;5093507;28;20024;-80
2021/07/24 09:48:53;;;;;;;;;;;18.40;99.90;;;;;;5093810;28;20024;-80
2021/07/24 09:51:36;;;;;;;19.70;12.57;;;18.40;99.90;;;;;;5075735;28;19922;-79
2021/07/24 09:54:03;;;;;;;17.90;9.57;;;18.30;99.90;;;;;;5073167;28;20024;-78
2021/07/24 09:56:41;;;;;;;24.83;15.80;;;18.20;99.90;;;;;;5073045;28;20033;-78
2021/07/24 09:59:20;;;;;;;30.20;17.95;;;18.00;99.90;;;;;;5079314;28;20055;-78
2021/07/24 10:01:56;;;;;;;46.65;22.48;;;17.90;99.90;;;;;;5093748;28;20050;-76
2021/07/24 10:04:33;;;;;;;12.65;5.22;;;17.90;99.90;;;;;;5093434;28;20404;-76
2021/07/24 10:07:00;;;;;;;11.70;5.45;;;17.80;99.90;;;;;;5093173;28;20078;-77
2021/07/24 10:09:29;;;;;;;22.63;10.13;;;17.70;99.90;;;;;;5092937;28;20032;-77
2021/07/24 10:11:58;;;;;;;29.05;16.48;;;17.60;99.90;;;;;;5075192;28;20030;-80
2021/07/24 10:14:25;;;;;;;14.52;6.20;;;17.10;99.90;;;;;;5054909;28;20131;-82
2021/07/24 10:16:52;;;;;;;19.50;6.43;;;17.00;99.90;;;;;;5071954;28;20028;-81
2021/07/24 10:19:23;;;;;;;15.60;7.65;;;16.80;99.90;;;;;;5072423;28;20135;-82
2021/07/24 10:21:51;;;;;;;17.40;8.20;;;16.60;99.90;;;;;;5071656;28;20079;-80
2021/07/24 10:24:17;;;;;;;19.58;13.00;;;16.50;99.90;;;;;;5072864;28;20028;-82
2021/07/24 10:27:13;;;;;;;20.77;7.55;;;16.40;99.90;;;;;;5072785;28;20021;-80
2021/07/24 10:29:52;;;;;;;16.25;7.32;;;16.40;99.90;;;;;;5072791;28;20020;-79
2021/07/24 10:32:25;;;;;;;23.13;11.70;;;16.50;99.90;;;;;;5073548;28;20017;-81
2021/07/24 10:34:52;;;;;;;23.88;13.40;;;16.60;99.90;;;;;;5073179;28;20103;-80
2021/07/24 10:37:30;;;;;;;18.63;6.93;;;16.60;99.90;;;;;;5073127;28;20024;-79
2021/07/24 10:40:27;;;;;;;34.10;18.95;;;16.70;99.90;;;;;;5073068;28;20036;-79
2021/07/24 10:42:54;;;;;;;14.98;7.80;;;16.80;99.90;;;;;;5052078;28;20060;-79
2021/07/24 10:45:37;;;;;;;46.55;32.30;;;17.00;99.90;;;;;;5072978;28;20036;-78
2021/07/24 10:48:15;;;;;;;17.23;9.13;;;17.20;99.90;;;;;;5073133;28;20021;-78
2021/07/24 10:51:04;;;;;;;13.05;6.47;;;17.50;99.90;;;;;;5073095;28;20078;-78
2021/07/24 10:54:16;;;;;;;12.70;6.32;;;17.80;99.90;;;;;;5064975;28;20033;-78
2021/07/24 10:56:42;;;;;;;12.68;5.90;;;17.90;99.90;;;;;;5069946;28;20082;-78
2021/07/24 10:59:16;;;;;;;13.57;7.88;;;18.20;99.90;;;;;;5072921;28;20025;-78
2021/07/24 11:01:52;;;;;;;15.48;9.80;;;18.30;99.90;;;;;;5076033;28;20037;-77
2021/07/24 11:04:36;;;;;;;13.35;7.03;;;18.20;99.90;;;;;;5077120;28;20025;-79
2021/07/24 11:07:17;;;;;;;13.93;7.50;;;18.10;99.90;;;;;;5076766;28;20469;-79
2021/07/24 11:09:44;;;;;;;15.63;6.93;;;18.00;99.90;;;;;;5076824;28;20020;-79
2021/07/24 11:12:16;;;;;;;12.02;6.80;;;18.00;99.90;;;;;;5077104;28;20017;-80
2021/07/24 11:14:49;;;;;;;17.17;7.30;;;18.00;99.90;;;;;;5089169;28;20047;-80
2021/07/24 11:17:17;;;;;;;34.90;23.20;;;18.00;99.90;;;;;;5078532;28;20499;-80
2021/07/24 11:19:43;;;;;;;12.98;6.47;;;17.80;99.90;;;;;;5097120;28;20051;-79
2021/07/24 11:22:20;;;;;;;18.55;11.07;;;17.90;99.90;;;;;;5096850;28;20031;-79
2021/07/24 11:24:52;;;;;;;25.42;16.48;;;18.00;99.90;;;;;;5096752;28;20531;-78
2021/07/24 11:27:28;;;;;;;16.88;10.48;;;17.90;99.90;;;;;;5078487;28;20028;-78
2021/07/24 11:30:04;;;;;;;52.00;33.55;;;18.00;99.90;;;;;;5078496;28;20024;-79
2021/07/24 11:32:31;;;;;;;;;;;18.00;99.90;;;;;;5097046;28;20021;-80
2021/07/24 11:35:05;;;;;;;13.48;7.15;;;18.20;99.90;;;;;;5096990;28;20052;-79
2021/07/24 11:37:34;;;;;;;14.00;6.43;;;18.30;99.90;;;;;;5078074;28;20510;-79
2021/07/24 11:40:01;;;;;;;11.90;6.95;;;18.20;99.90;;;;;;5096823;28;20446;-79
2021/07/24 11:42:26;;;;;;;22.08;15.88;;;18.10;99.90;;;;;;5096526;28;20027;-79
2021/07/24 11:44:52;;;;;;;10.52;5.28;;;17.90;99.90;;;;;;5096450;28;20016;-81
2021/07/24 11:47:18;;;;;;;;;;;18.00;99.90;;;;;;5096734;28;20051;-79
2021/07/24 11:49:44;;;;;;;11.45;6.70;;;18.00;99.90;;;;;;5078197;28;20225;-79
2021/07/24 11:52:10;;;;;;;13.57;7.45;;;18.10;99.90;;;;;;5096319;28;20043;-79
2021/07/24 11:54:36;;;;;;;10.27;5.93;;;18.20;99.90;;;;;;5096266;28;20081;-79
2021/07/24 11:57:05;;;;;;;8.90;4.60;;;18.20;99.90;;;;;;5096222;28;20121;-78
2021/07/24 11:59:33;;;;;;;9.57;5.32;;;18.40;99.90;;;;;;5096176;28;20024;-79
2021/07/24 12:02:00;;;;;;;13.13;8.60;;;18.30;99.90;;;;;;5096195;28;20020;-79
2021/07/24 12:04:27;;;;;;;6.88;4.80;;;18.40;99.90;;;;;;5096103;28;20035;-79
2021/07/24 12:06:57;;;;;;;9.40;4.47;;;18.70;99.90;;;;;;5096138;28;20020;-80
2021/07/24 12:09:23;;;;;;;8.02;5.05;;;18.80;99.90;;;;;;5077815;28;20029;-79
2021/07/24 12:11:56;;;;;;;16.90;10.30;;;18.90;99.90;;;;;;5094931;28;20426;-79
2021/07/24 12:14:23;;;;;;;13.40;9.80;;;19.10;99.90;;;;;;5095583;28;20040;-79
2021/07/24 12:17:08;;;;;;;17.52;8.82;;;19.00;99.90;;;;;;5095607;28;20040;-78
2021/07/24 12:19:38;;;;;;;10.13;5.57;;;19.00;99.90;;;;;;5096018;28;20020;-79
2021/07/24 12:22:16;;;;;;;27.08;23.90;;;18.90;99.90;;;;;;5095768;28;20106;-79
2021/07/24 12:24:43;;;;;;;48.58;31.25;;;18.80;99.90;;;;;;5095623;28;20020;-79
2021/07/24 12:27:14;;;;;;;16.50;9.82;;;18.70;99.90;;;;;;5095682;28;20050;-78
2021/07/24 12:29:46;;;;;;;11.35;7.72;;;18.80;99.90;;;;;;5095649;28;20024;-80
2021/07/24 12:32:12;;;;;;;14.98;8.77;;;18.90;99.90;;;;;;5095625;28;20028;-78
2021/07/24 12:34:38;;;;;;;14.10;10.48;;;19.20;99.90;;;;;;5095341;28;20024;-80
2021/07/24 12:37:04;;;;;;;10.98;6.35;;;18.90;99.90;;;;;;5095460;28;20397;-80
2021/07/24 12:39:34;;;;;;;10.45;5.47;;;18.70;99.90;;;;;;5095479;28;20032;-79
2021/07/24 12:42:05;;;;;;;24.60;17.92;;;18.90;99.90;;;;;;5095434;28;20031;-80
2021/07/24 12:44:50;;;;;;;11.48;6.15;;;18.80;99.90;;;;;;5095351;28;20020;-80
2021/07/24 12:47:17;;;;;;;16.63;12.70;;;19.10;99.90;;;;;;5095561;28;20034;-81
2021/07/24 12:49:47;;;;;;;35.78;25.27;;;19.10;99.90;;;;;;5095205;28;20016;-80
2021/07/24 12:52:26;;;;;;;13.45;7.68;;;19.10;99.90;;;;;;5095090;28;20121;-80
2021/07/24 12:55:08;;;;;;;11.55;6.78;;;19.40;99.90;;;;;;5094917;28;20516;-80